Time;durP1;ratioP1;P1;durP2;ratioP2;P2;SDS_P1;SDS_P2;PMS_P1;PMS_P2;Temp;Humidity;BMP_temperature;BMP_pressure;BME280_temperature;BME280_humidity;BME280_pressure;Samples;Min_cycle;Max_cycle;Signal;HPM_P1;HPM_P2
2021/09/25 00:02:37;;;;;;;12.50;5.67;;;;;;;11.79;81.17;98752.78;2184547;81;20951;-80
2021/09/25 00:05:37;;;;;;;13.00;5.53;;;;;;;11.79;80.80;98753.66;2184194;82;21010;-81
2021/09/25 00:08:38;;;;;;;14.40;5.67;;;;;;;11.84;80.85;98756.30;2184656;81;20979;-80
2021/09/25 00:11:38;;;;;;;12.60;6.00;;;;;;;11.84;80.84;98756.30;2184697;82;20995;-80
2021/09/25 00:14:39;;;;;;;12.43;5.60;;;;;;;11.88;81.04;98755.44;2184284;82;21438;-81
2021/09/25 00:17:39;;;;;;;14.83;5.58;;;;;;;11.93;80.97;98752.41;2184493;82;21007;-80
2021/09/25 00:20:40;;;;;;;13.28;5.67;;;;;;;11.97;80.94;98756.80;2184176;82;20975;-82
2021/09/25 00:23:40;;;;;;;13.53;6.15;;;;;;;12.02;81.06;98754.20;2183985;82;20964;-80
2021/09/25 00:26:41;;;;;;;17.35;5.58;;;;;;;12.06;80.99;98760.77;2187459;81;21018;-82
2021/09/25 00:29:41;;;;;;;11.57;5.33;;;;;;;12.11;81.04;98758.16;2187974;81;20983;-81
2021/09/25 00:32:42;;;;;;;11.43;5.80;;;;;;;12.17;81.06;98756.05;2187465;81;21014;-80
2021/09/25 00:35:42;;;;;;;10.85;5.60;;;;;;;12.23;81.27;98767.41;2187739;81;21055;-81
2021/09/25 00:38:43;;;;;;;12.50;6.10;;;;;;;12.27;81.03;98766.55;2188282;81;21335;-81
2021/09/25 00:41:43;;;;;;;10.95;5.20;;;;;;;12.32;80.98;98763.95;2188748;81;21379;-81
2021/09/25 00:44:44;;;;;;;11.22;5.70;;;;;;;12.35;81.01;98760.03;2188175;81;21042;-80
2021/09/25 00:47:44;;;;;;;10.40;5.58;;;;;;;12.41;81.09;98758.74;2188173;81;20995;-82
2021/09/25 00:50:45;;;;;;;12.15;6.22;;;;;;;12.47;80.96;98757.45;2188246;81;20987;-80
2021/09/25 00:53:45;;;;;;;11.63;5.33;;;;;;;12.48;81.06;98757.89;2188520;81;20983;-81
2021/09/25 00:56:47;;;;;;;15.40;5.15;;;;;;;12.50;80.94;98757.46;2187556;81;21449;-80
2021/09/25 00:59:49;;;;;;;14.98;5.70;;;;;;;12.54;81.04;98757.03;2187889;81;21019;-81
2021/09/25 01:02:50;;;;;;;12.03;5.20;;;;;;;12.58;80.87;98754.86;2187833;81;21046;-81
2021/09/25 01:05:50;;;;;;;8.90;5.40;;;;;;;12.62;80.98;98750.07;2187596;81;20990;-80
2021/09/25 01:08:50;;;;;;;9.30;4.90;;;;;;;12.64;80.87;98749.20;2187708;81;21362;-82
2021/09/25 01:11:51;;;;;;;13.55;5.95;;;;;;;12.65;81.29;98752.70;2187721;81;21014;-80
2021/09/25 01:14:51;;;;;;;10.65;5.20;;;;;;;12.68;80.85;98750.95;2187825;81;20984;-79
2021/09/25 01:17:52;;;;;;;8.83;4.75;;;;;;;12.72;80.91;98747.91;2187932;81;21038;-81
2021/09/25 01:23:55;;;;;;;10.47;5.03;;;;;;;12.74;81.15;98748.78;2148816;81;21054;-78
2021/09/25 01:26:55;;;;;;;9.25;5.22;;;;;;;12.76;81.06;98751.84;2183482;80;21043;-81
2021/09/25 01:29:56;;;;;;;10.13;5.17;;;;;;;12.84;80.92;98753.60;2184191;81;21007;-80
2021/09/25 01:32:58;;;;;;;12.98;5.33;;;;;;;12.86;80.77;98754.48;2184475;82;21378;-81
2021/09/25 01:35:58;;;;;;;10.40;5.10;;;;;;;12.89;80.84;98765.83;2184168;81;21007;-80
2021/09/25 01:38:58;;;;;;;10.10;5.72;;;;;;;12.91;80.63;98765.40;2183887;82;21035;-79
2021/09/25 01:41:59;;;;;;;10.20;5.28;;;;;;;12.93;80.72;98762.78;2183752;82;20928;-80
2021/09/25 01:44:59;;;;;;;9.48;5.45;;;;;;;12.94;80.58;98753.61;2183943;81;21043;-80
2021/09/25 01:48:00;;;;;;;18.42;7.33;;;;;;;12.95;80.70;98761.03;2184162;82;20972;-81
2021/09/25 01:51:01;;;;;;;13.53;5.72;;;;;;;12.97;80.59;98757.98;2184304;81;21666;-80
2021/09/25 01:54:01;;;;;;;10.05;6.00;;;;;;;12.98;80.61;98759.73;2184450;82;21398;-82
2021/09/25 01:57:02;;;;;;;11.80;5.58;;;;;;;12.98;80.61;98762.34;2184138;82;20992;-80
2021/09/25 02:00:03;;;;;;;11.22;5.65;;;;;;;12.99;80.60;98764.09;2183992;82;20973;-80
2021/09/25 02:03:03;;;;;;;13.40;6.10;;;;;;;13.02;80.45;98762.39;2183947;82;21002;-80
2021/09/25 02:09:06;;;;;;;10.63;5.08;;;;;;;13.05;80.29;98752.34;2154999;82;21051;-79
2021/09/25 02:12:07;;;;;;;11.78;5.42;;;;;;;13.07;80.28;98749.28;2184364;82;21383;-80
2021/09/25 02:15:08;;;;;;;14.47;5.97;;;;;;;13.07;80.25;98753.22;2183921;82;21128;-81
2021/09/25 02:18:09;;;;;;;16.73;5.67;;;;;;;13.08;80.25;98748.41;2184512;82;20992;-80
2021/09/25 02:21:09;;;;;;;11.28;5.58;;;;;;;13.10;80.26;98746.66;2184172;82;21018;-79
2021/09/25 02:24:10;;;;;;;9.78;5.80;;;;;;;13.13;80.27;98754.53;2184463;82;20987;-80
2021/09/25 02:27:10;;;;;;;12.05;5.85;;;;;;;13.14;80.32;98755.40;2181926;80;21034;-80
2021/09/25 02:30:11;;;;;;;9.78;5.12;;;;;;;13.16;80.16;98754.53;2181519;82;20956;-80
2021/09/25 02:33:12;;;;;;;7.47;5.45;;;;;;;13.18;80.17;98751.94;2182042;82;20971;-80
2021/09/25 02:36:12;;;;;;;11.95;5.85;;;;;;;13.19;80.08;98758.49;2181657;82;21342;-78
2021/09/25 02:39:13;;;;;;;10.50;5.22;;;;;;;13.21;80.15;98761.11;2181609;82;20943;-80
2021/09/25 02:42:14;;;;;;;15.68;5.75;;;;;;;13.22;79.97;98757.19;2182023;82;20990;-80
2021/09/25 02:45:14;;;;;;;6.83;5.75;;;;;;;13.24;80.12;98758.49;2182201;82;21461;-81
2021/09/25 02:48:15;;;;;;;13.70;6.78;;;;;;;13.22;79.94;98757.19;2181929;82;21022;-80
2021/09/25 02:51:15;;;;;;;7.72;5.35;;;;;;;13.26;79.92;98764.61;2182636;82;21010;-82
2021/09/25 02:54:16;;;;;;;11.08;6.03;;;;;;;13.27;80.00;98763.73;2182015;82;20979;-79
2021/09/25 02:57:16;;;;;;;19.90;7.50;;;;;;;13.28;80.04;98765.05;2181536;82;21014;-81
2021/09/25 03:00:17;;;;;;;10.48;6.65;;;;;;;13.29;80.23;98768.54;2182024;82;20963;-81
2021/09/25 03:03:17;;;;;;;11.22;6.72;;;;;;;13.30;79.98;98772.91;2182257;82;20975;-81
2021/09/25 03:06:18;;;;;;;14.07;6.53;;;;;;;13.32;80.17;98768.10;2182065;82;20951;-83
2021/09/25 03:09:18;;;;;;;11.50;6.95;;;;;;;13.33;80.15;98767.66;2181924;82;20951;-81
2021/09/25 03:12:19;;;;;;;16.07;6.70;;;;;;;13.34;80.06;98763.73;2182179;82;20983;-82
2021/09/25 03:15:19;;;;;;;12.00;8.75;;;;;;;13.37;80.24;98757.17;2182051;82;20927;-80
2021/09/25 03:18:20;;;;;;;10.98;7.12;;;;;;;13.38;80.07;98765.48;2181716;82;20962;-80
2021/09/25 03:21:20;;;;;;;15.90;7.78;;;;;;;13.40;80.15;98762.85;2182114;82;20950;-81
2021/09/25 03:24:21;;;;;;;13.80;6.90;;;;;;;13.43;80.42;98765.47;2182228;82;20998;-80
2021/09/25 03:27:24;;;;;;;12.75;6.97;;;;;;;13.47;80.03;98759.78;2181581;81;21010;-80
2021/09/25 03:30:24;;;;;;;12.78;6.90;;;;;;;13.50;80.05;98768.52;2182017;82;21030;-83
2021/09/25 03:33:24;;;;;;;11.35;6.65;;;;;;;13.55;79.90;98763.27;2181979;82;20971;-81
2021/09/25 03:36:25;;;;;;;17.50;7.12;;;;;;;13.59;79.90;98770.27;2181781;82;21001;-80
2021/09/25 03:39:25;;;;;;;15.10;7.97;;;;;;;13.59;80.16;98776.38;2181527;82;20955;-83
2021/09/25 03:42:26;;;;;;;15.90;7.83;;;;;;;13.59;79.94;98762.39;2182380;82;21314;-82
2021/09/25 03:45:26;;;;;;;16.62;7.37;;;;;;;13.62;79.90;98758.45;2181805;82;20986;-80
2021/09/25 03:48:27;;;;;;;14.13;7.80;;;;;;;13.64;79.86;98757.58;2180600;82;20998;-79
2021/09/25 03:51:27;;;;;;;12.63;8.00;;;;;;;13.66;79.86;98759.76;2180872;82;20973;-81
2021/09/25 03:54:27;;;;;;;11.55;9.33;;;;;;;13.68;79.89;98761.06;2181049;82;20935;-80
2021/09/25 03:57:28;;;;;;;15.38;9.58;;;;;;;13.69;79.75;98758.87;2181187;82;21358;-81
2021/09/25 04:00:28;;;;;;;16.27;10.18;;;;;;;13.71;79.84;98760.63;2181781;82;20947;-81
2021/09/25 04:03:29;;;;;;;12.55;7.78;;;;;;;13.74;79.91;98758.43;2181493;82;21037;-79
2021/09/25 04:06:29;;;;;;;10.93;8.45;;;;;;;13.74;79.73;98753.63;2181409;82;21026;-79
2021/09/25 04:09:30;;;;;;;15.10;8.53;;;;;;;13.75;79.70;98758.86;2181188;82;20994;-82
2021/09/25 04:12:30;;;;;;;16.50;7.95;;;;;;;13.76;79.79;98755.80;2181769;82;21350;-80
2021/09/25 04:15:31;;;;;;;14.43;7.80;;;;;;;13.77;79.85;98758.42;2181472;82;20974;-81
2021/09/25 04:18:31;;;;;;;13.70;7.62;;;;;;;13.80;79.73;98763.66;2181668;82;21366;-81
2021/09/25 04:21:32;;;;;;;12.98;7.60;;;;;;;13.82;79.76;98755.34;2181444;82;20969;-80
2021/09/25 04:24:33;;;;;;;31.33;6.95;;;;;;;13.83;79.88;98761.03;2180694;82;21062;-79
2021/09/25 04:27:33;;;;;;;23.42;6.55;;;;;;;15.23;85.75;98764.76;2185466;81;21031;-78
2021/09/25 04:30:34;;;;;;;16.93;6.53;;;;;;;17.06;81.89;98759.64;2186601;81;21387;-78
2021/09/25 04:33:34;;;;;;;30.82;6.80;;;;;;;18.27;76.96;98763.71;2186811;81;21306;-78
2021/09/25 04:36:36;;;;;;;12.47;5.50;;;;;;;18.91;72.92;98758.37;2185088;81;20987;-78
2021/09/25 04:39:37;;;;;;;10.25;5.47;;;;;;;19.40;70.60;98762.52;2185949;81;21018;-79
2021/09/25 04:42:37;;;;;;;15.93;5.67;;;;;;;19.78;68.08;98762.89;2186268;81;20991;-78
2021/09/25 04:45:38;;;;;;;14.95;5.55;;;;;;;19.77;66.36;98766.45;2186317;81;20932;-79
2021/09/25 04:48:39;;;;;;;8.33;4.92;;;;;;;19.88;65.27;98764.39;2185859;81;20960;-82
2021/09/25 04:51:39;;;;;;;8.30;5.50;;;;;;;19.40;63.52;98766.04;2186371;81;21370;-81
2021/09/25 04:54:39;;;;;;;8.58;5.42;;;;;;;18.91;64.76;98768.95;2185612;81;21340;-81
2021/09/25 04:57:40;;;;;;;11.53;5.58;;;;;;;18.67;64.47;98761.58;2185416;81;21006;-82
2021/09/25 05:00:40;;;;;;;8.03;5.50;;;;;;;17.73;64.68;98763.84;2185323;81;20963;-83
2021/09/25 05:03:41;;;;;;;5.87;5.22;;;;;;;17.00;66.05;98772.92;2184963;81;20939;-81
2021/09/25 05:06:42;;;;;;;11.97;6.95;;;;;;;16.38;67.54;98787.77;2185182;81;21424;-83
2021/09/25 05:09:42;;;;;;;10.58;6.55;;;;;;;15.96;68.92;98799.66;2185613;81;20928;-81
2021/09/25 05:12:43;;;;;;;17.87;7.78;;;;;;;15.66;69.87;98805.23;2185988;81;20923;-82
2021/09/25 05:15:43;;;;;;;17.80;6.97;;;;;;;15.45;70.71;98808.84;2186135;81;21466;-83
2021/09/25 05:18:44;;;;;;;8.63;6.08;;;;;;;15.29;71.34;98805.02;2186105;81;20952;-82
2021/09/25 05:21:44;;;;;;;11.90;5.85;;;;;;;15.19;71.85;98809.92;2186215;81;21374;-83
2021/09/25 05:24:45;;;;;;;7.17;6.12;;;;;;;15.09;72.44;98810.88;2186031;81;20983;-83
2021/09/25 05:27:48;;;;;;;10.00;5.83;;;;;;;15.01;72.86;98802.16;2182191;81;21022;-82
2021/09/25 05:30:48;;;;;;;11.18;5.80;;;;;;;14.92;73.14;98797.84;2181657;81;21374;-81
2021/09/25 05:33:49;;;;;;;7.53;5.75;;;;;;;14.87;73.56;98797.00;2181970;82;20959;-82
2021/09/25 05:36:49;;;;;;;12.78;6.30;;;;;;;14.82;73.95;98796.16;2181967;81;21379;-82
2021/09/25 05:39:54;;;;;;;6.37;5.70;;;;;;;14.79;74.23;98795.30;2182541;82;20987;-82
2021/09/25 05:42:52;;;;;;;9.63;6.70;;;;;;;14.75;74.53;98790.94;2182178;82;20964;-82
2021/09/25 05:45:53;;;;;;;7.95;6.70;;;;;;;14.75;74.77;98790.94;2182390;82;21439;-82
2021/09/25 05:48:53;;;;;;;11.90;6.87;;;;;;;14.77;74.98;98790.49;2181811;82;20952;-82
2021/09/25 05:51:54;;;;;;;7.08;6.20;;;;;;;14.80;75.05;98786.53;2181679;81;20971;-82
2021/09/25 05:54:54;;;;;;;9.35;6.58;;;;;;;14.84;75.14;98782.56;2182093;81;21351;-83
2021/09/25 05:57:59;;;;;;;13.60;6.78;;;;;;;14.84;75.20;98784.31;2181433;82;20999;-82
2021/09/25 06:00:57;;;;;;;9.48;6.70;;;;;;;14.85;75.30;98796.13;2181878;82;21016;-81
2021/09/25 06:03:57;;;;;;;9.58;6.90;;;;;;;14.89;75.42;98794.36;2182088;82;21387;-83
2021/09/25 06:06:58;;;;;;;12.95;6.62;;;;;;;14.93;75.43;98794.33;2182067;82;21011;-82
2021/09/25 06:09:58;;;;;;;8.78;6.97;;;;;;;14.99;75.54;98790.79;2182263;82;21423;-83
2021/09/25 06:12:59;;;;;;;10.82;5.55;;;;;;;15.07;75.46;98792.92;2182290;81;21015;-83
2021/09/25 06:15:59;;;;;;;10.23;7.10;;;;;;;15.13;75.70;98802.08;2182461;82;20971;-82
2021/09/25 06:19:00;;;;;;;9.00;7.53;;;;;;;15.16;75.62;98803.81;2182430;81;21363;-83
2021/09/25 06:22:00;;;;;;;13.93;7.95;;;;;;;15.21;75.57;98805.52;2182442;82;20968;-82
2021/09/25 06:25:01;;;;;;;10.20;6.75;;;;;;;15.24;75.63;98808.13;2182331;82;21026;-82
2021/09/25 06:28:01;;;;;;;8.85;7.00;;;;;;;15.24;75.63;98808.13;2179809;81;21070;-83
2021/09/25 06:31:02;;;;;;;9.53;7.12;;;;;;;15.29;75.69;98807.66;2180204;82;20944;-83
2021/09/25 06:34:03;;;;;;;13.85;8.10;;;;;;;15.34;75.72;98813.32;2181358;82;20994;-82
2021/09/25 06:37:04;;;;;;;13.32;6.95;;;;;;;15.37;75.88;98818.56;2180510;82;20974;-82
2021/09/25 06:40:04;;;;;;;7.50;6.62;;;;;;;15.37;75.85;98823.82;2180930;82;20970;-82
2021/09/25 06:43:05;;;;;;;7.83;7.03;;;;;;;15.41;75.88;98828.17;2180957;82;21006;-82
2021/09/25 06:46:06;;;;;;;8.68;6.37;;;;;;;15.46;75.75;98821.11;2180577;82;21010;-83
2021/09/25 06:49:06;;;;;;;11.70;7.42;;;;;;;15.53;75.78;98821.05;2180721;82;20966;-82
2021/09/25 06:52:07;;;;;;;9.58;6.55;;;;;;;15.60;75.69;98823.22;2180588;82;20938;-82
2021/09/25 06:55:08;;;;;;;8.38;7.10;;;;;;;15.68;75.56;98824.06;2180266;82;21401;-82
2021/09/25 06:58:08;;;;;;;8.65;6.75;;;;;;;15.75;75.40;98822.24;2180387;82;20970;-83
2021/09/25 07:01:09;;;;;;;8.13;6.85;;;;;;;15.78;75.65;98820.45;2180171;82;20962;-82
2021/09/25 07:04:09;;;;;;;8.18;6.78;;;;;;;15.78;75.65;98820.45;2180546;82;20981;-83
2021/09/25 07:07:10;;;;;;;8.23;6.70;;;;;;;15.81;75.38;98828.77;2180138;82;20950;-83
2021/09/25 07:10:11;;;;;;;10.58;6.50;;;;;;;15.85;75.30;98828.72;2180950;82;20958;-83
2021/09/25 07:13:12;;;;;;;7.58;6.78;;;;;;;15.89;75.26;98834.39;2181044;82;20991;-82
2021/09/25 07:16:14;;;;;;;8.08;6.90;;;;;;;15.93;75.31;98837.42;2181420;82;21014;-83
2021/09/25 07:19:15;;;;;;;9.33;7.20;;;;;;;15.95;75.21;98837.41;2180523;82;20970;-83
2021/09/25 07:22:15;;;;;;;8.98;6.92;;;;;;;15.99;75.20;98836.48;2180066;82;21014;-82
2021/09/25 07:25:16;;;;;;;11.10;7.15;;;;;;;16.03;75.07;98841.27;2180510;82;20994;-82
2021/09/25 07:28:16;;;;;;;8.15;6.55;;;;;;;16.05;75.09;98839.05;2180146;81;21002;-82
2021/09/25 07:31:17;;;;;;;8.73;6.95;;;;;;;16.09;75.17;98840.77;2180280;82;20959;-82
2021/09/25 07:34:18;;;;;;;8.30;6.35;;;;;;;16.16;75.05;98840.26;2181176;82;20959;-81
2021/09/25 07:37:18;;;;;;;8.23;7.28;;;;;;;16.22;74.83;98845.02;2180525;82;20982;-81
2021/09/25 07:40:18;;;;;;;10.90;7.17;;;;;;;16.27;74.85;98849.36;2179557;82;20974;-81
2021/09/25 07:43:19;;;;;;;7.62;6.10;;;;;;;16.31;74.66;98845.36;2180257;82;21319;-81
2021/09/25 07:46:19;;;;;;;8.48;7.15;;;;;;;16.33;74.55;98850.17;2180673;82;20975;-81
2021/09/25 07:49:20;;;;;;;13.80;7.03;;;;;;;16.37;74.59;98854.51;2180351;82;20942;-81
2021/09/25 07:52:20;;;;;;;8.68;7.30;;;;;;;16.42;74.49;98851.38;2180136;82;20919;-82
2021/09/25 07:55:21;;;;;;;8.73;6.85;;;;;;;16.44;74.39;98860.14;2180952;82;21403;-80
2021/09/25 07:58:24;;;;;;;8.55;6.65;;;;;;;16.48;74.33;98865.83;2174526;80;20985;-82
2021/09/25 08:01:24;;;;;;;8.40;7.45;;;;;;;16.53;74.25;98866.65;2180043;82;20935;-82
2021/09/25 08:04:25;;;;;;;14.03;10.15;;;;;;;16.57;73.95;98870.12;2180674;82;20997;-81
2021/09/25 08:07:25;;;;;;;23.25;15.55;;;;;;;16.68;74.02;98870.03;2180567;82;21014;-81
2021/09/25 08:10:26;;;;;;;21.65;12.55;;;;;;;16.74;73.73;98872.59;2180662;82;20971;-82
2021/09/25 08:13:26;;;;;;;14.05;10.85;;;;;;;16.84;73.54;98875.09;2180634;82;21382;-81
2021/09/25 08:16:27;;;;;;;16.87;12.68;;;;;;;16.92;73.27;98878.06;2180255;82;21394;-81
2021/09/25 08:19:27;;;;;;;12.37;10.98;;;;;;;16.98;73.01;98881.50;2180220;82;20955;-81
2021/09/25 08:22:28;;;;;;;13.38;8.88;;;;;;;17.10;72.98;98877.38;2180812;82;20965;-82
2021/09/25 08:25:31;;;;;;;10.82;7.65;;;;;;;17.10;72.98;98877.38;2180921;82;21033;-81
2021/09/25 08:28:31;;;;;;;15.40;8.63;;;;;;;17.18;72.68;98884.73;2181955;81;21082;-81
2021/09/25 08:31:32;;;;;;;9.18;7.70;;;;;;;17.24;72.51;98878.95;2183169;81;21458;-81
2021/09/25 08:34:35;;;;;;;11.43;7.45;;;;;;;17.24;72.22;98878.95;2183274;82;21067;-81
2021/09/25 08:37:35;;;;;;;14.75;8.58;;;;;;;17.31;72.06;98879.28;2182607;81;21439;-82
2021/09/25 08:40:36;;;;;;;8.03;7.22;;;;;;;17.36;72.10;98877.03;2182817;82;21010;-80
2021/09/25 08:43:36;;;;;;;9.58;7.62;;;;;;;17.45;71.86;98879.98;2183022;82;21367;-81
2021/09/25 08:46:40;;;;;;;14.43;9.65;;;;;;;17.53;71.10;98893.05;2183140;82;21446;-81
2021/09/25 08:49:40;;;;;;;12.30;9.43;;;;;;;17.55;71.20;98897.86;2183316;82;20991;-81
2021/09/25 08:52:41;;;;;;;12.60;10.28;;;;;;;17.57;71.28;98894.30;2183183;82;20995;-83
2021/09/25 08:55:42;;;;;;;13.60;8.83;;;;;;;17.66;70.95;98897.25;2183619;81;20976;-82
2021/09/25 08:58:44;;;;;;;14.47;8.65;;;;;;;17.76;70.72;98899.75;2182985;82;21014;-81
2021/09/25 09:01:45;;;;;;;14.28;9.70;;;;;;;17.85;70.46;98898.73;2183467;81;21059;-81
2021/09/25 09:04:45;;;;;;;11.05;9.08;;;;;;;17.93;70.16;98897.28;2183108;81;21034;-81
2021/09/25 09:07:46;;;;;;;10.15;9.00;;;;;;;18.02;70.09;98901.08;2182714;82;20982;-82
2021/09/25 09:10:46;;;;;;;11.48;10.25;;;;;;;18.06;69.77;98902.77;2183258;81;20988;-82
2021/09/25 09:13:47;;;;;;;17.48;9.93;;;;;;;18.12;70.10;98903.53;2183038;81;20975;-82
2021/09/25 09:16:48;;;;;;;11.75;8.58;;;;;;;18.19;69.04;98905.63;2182674;82;21378;-82
2021/09/25 09:19:48;;;;;;;14.87;8.80;;;;;;;18.30;69.09;98894.44;2182922;82;21583;-81
2021/09/25 09:22:49;;;;;;;9.93;8.18;;;;;;;18.40;68.84;98905.27;2182534;82;21042;-81
2021/09/25 09:25:49;;;;;;;11.48;9.43;;;;;;;18.53;68.83;98908.55;2182388;81;20936;-82
2021/09/25 09:31:52;;;;;;;11.50;9.90;;;;;;;18.76;68.15;98909.45;2153891;82;20988;-81
2021/09/25 09:34:52;;;;;;;14.33;10.32;;;;;;;18.85;67.46;98907.94;2182867;82;20951;-81
2021/09/25 09:37:53;;;;;;;16.77;8.60;;;;;;;18.89;67.46;98914.04;2182026;82;20990;-82
2021/09/25 09:40:53;;;;;;;14.73;10.13;;;;;;;18.96;67.46;98905.95;2182291;82;21003;-81
2021/09/25 09:43:54;;;;;;;10.72;8.60;;;;;;;19.10;67.02;98908.33;2182490;82;20998;-81
2021/09/25 09:46:54;;;;;;;10.45;9.38;;;;;;;19.23;65.55;98907.61;2182986;81;21335;-80
2021/09/25 09:49:55;;;;;;;11.03;9.10;;;;;;;19.36;66.02;98902.46;2182938;82;20992;-81
2021/09/25 09:52:55;;;;;;;10.78;9.10;;;;;;;19.43;65.66;98902.73;2182869;82;20983;-81
2021/09/25 09:55:56;;;;;;;18.70;10.80;;;;;;;19.56;65.50;98900.26;2182915;82;21082;-81
2021/09/25 09:58:56;;;;;;;11.90;9.63;;;;;;;19.68;65.21;98899.97;2182906;82;21462;-81
2021/09/25 10:01:57;;;;;;;10.18;8.90;;;;;;;19.82;63.99;98900.09;2182555;81;20924;-82
2021/09/25 10:04:57;;;;;;;11.57;9.73;;;;;;;19.71;64.49;98906.97;2181096;81;20955;-81
2021/09/25 10:07:58;;;;;;;15.05;8.78;;;;;;;19.66;64.10;98904.88;2181154;81;20927;-80
2021/09/25 10:10:58;;;;;;;10.82;9.45;;;;;;;19.73;64.24;98902.05;2181954;81;20960;-81
2021/09/25 10:13:59;;;;;;;16.05;8.95;;;;;;;19.86;63.68;98901.30;2182086;82;20976;-81
2021/09/25 10:16:59;;;;;;;11.48;8.78;;;;;;;19.97;63.83;98903.72;2182069;82;21299;-80
2021/09/25 10:20:00;;;;;;;9.50;8.45;;;;;;;20.12;63.13;98907.30;2182195;82;20928;-81
2021/09/25 10:23:00;;;;;;;13.05;9.53;;;;;;;20.17;63.32;98904.08;2182769;81;20928;-81
2021/09/25 10:26:01;;;;;;;9.83;8.10;;;;;;;20.27;63.17;98908.23;2182494;82;20999;-81
2021/09/25 10:29:01;;;;;;;12.43;8.50;;;;;;;20.37;63.10;98910.17;2186538;81;20999;-82
2021/09/25 10:32:01;;;;;;;14.90;8.45;;;;;;;20.46;62.94;98919.24;2186771;81;20991;-81
2021/09/25 10:35:03;;;;;;;9.88;8.55;;;;;;;20.53;62.04;98923.47;2186939;81;21320;-81
2021/09/25 10:38:03;;;;;;;9.85;8.85;;;;;;;20.60;62.37;98922.39;2187007;81;20963;-81
2021/09/25 10:41:04;;;;;;;12.35;8.35;;;;;;;20.67;61.60;98913.81;2187190;81;21011;-82
2021/09/25 10:44:05;;;;;;;8.45;7.60;;;;;;;20.77;62.05;98914.42;2187353;81;20982;-82
2021/09/25 10:47:05;;;;;;;10.95;8.28;;;;;;;20.83;61.00;98913.83;2187618;81;20983;-81
2021/09/25 10:50:06;;;;;;;12.80;7.42;;;;;;;20.83;60.54;98916.48;2187206;81;20988;-81
2021/09/25 10:53:07;;;;;;;13.48;8.88;;;;;;;20.88;60.28;98913.70;2186920;81;20971;-81
2021/09/25 10:56:07;;;;;;;11.05;7.83;;;;;;;20.76;60.39;98914.88;2187267;81;21375;-81
2021/09/25 10:59:08;;;;;;;10.82;8.68;;;;;;;20.69;60.00;98918.62;2187431;81;21398;-81
2021/09/25 11:02:09;;;;;;;12.28;8.43;;;;;;;20.65;59.98;98914.31;2186931;81;20947;-81
2021/09/25 11:05:10;;;;;;;10.32;8.13;;;;;;;20.74;60.35;98914.52;2186262;81;20986;-81
2021/09/25 11:08:10;;;;;;;12.05;8.38;;;;;;;20.76;60.67;98922.84;2186539;81;20955;-81
2021/09/25 11:11:10;;;;;;;11.45;8.15;;;;;;;20.84;60.20;98918.67;2185777;81;20932;-81
2021/09/25 11:14:11;;;;;;;10.98;7.92;;;;;;;20.89;59.91;98916.77;2185755;81;21366;-81
2021/09/25 11:17:11;;;;;;;10.90;7.92;;;;;;;20.86;60.67;98912.88;2185646;81;20975;-80
2021/09/25 11:20:18;;;;;;;11.22;7.92;;;;;;;20.90;60.55;98920.70;2186031;81;20967;-81
2021/09/25 11:23:14;;;;;;;9.73;7.50;;;;;;;20.95;60.17;98925.87;2184800;81;21013;-80
2021/09/25 11:26:15;;;;;;;11.60;8.73;;;;;;;20.85;60.15;98921.28;2186296;81;20954;-81
2021/09/25 11:29:15;;;;;;;10.65;8.68;;;;;;;20.99;60.17;98927.06;2181113;81;21042;-81
2021/09/25 11:32:16;;;;;;;10.60;8.18;;;;;;;21.01;59.79;98920.39;2180359;82;21003;-80
2021/09/25 11:35:16;;;;;;;11.05;8.53;;;;;;;21.04;59.89;98915.45;2179756;82;21306;-81
2021/09/25 11:38:17;;;;;;;9.60;8.43;;;;;;;21.05;59.63;98925.15;2180323;82;20915;-82
2021/09/25 11:41:18;;;;;;;11.03;8.98;;;;;;;21.01;59.01;98922.17;2180063;82;21023;-81
2021/09/25 11:44:18;;;;;;;8.78;7.70;;;;;;;21.08;59.11;98923.73;2180122;82;20947;-81
2021/09/25 11:47:19;;;;;;;8.95;8.03;;;;;;;21.15;59.27;98922.18;2180340;82;20994;-81
2021/09/25 11:50:19;;;;;;;10.32;7.47;;;;;;;21.06;58.95;98926.89;2180351;82;20939;-81
2021/09/25 11:53:20;;;;;;;10.53;7.53;;;;;;;21.07;58.82;98919.34;2180245;82;20935;-81
2021/09/25 11:56:20;;;;;;;10.23;8.05;;;;;;;21.16;58.11;98920.39;2181246;82;21367;-81
2021/09/25 11:59:21;;;;;;;8.45;7.60;;;;;;;21.09;57.58;98929.45;2180249;82;21358;-81
2021/09/25 12:02:21;;;;;;;10.15;7.97;;;;;;;21.01;58.36;98927.48;2180265;82;20973;-81
2021/09/25 12:05:23;;;;;;;10.00;8.10;;;;;;;20.92;58.34;98922.84;2180376;82;20994;-81
2021/09/25 12:08:24;;;;;;;9.50;8.50;;;;;;;20.97;58.09;98922.72;2179599;82;20915;-81
2021/09/25 12:11:24;;;;;;;13.75;9.45;;;;;;;21.13;58.31;98925.80;2179701;82;20978;-80
2021/09/25 12:14:25;;;;;;;10.60;8.15;;;;;;;21.21;58.83;98923.33;2179724;82;21006;-80
2021/09/25 12:17:26;;;;;;;11.05;8.03;;;;;;;21.23;58.65;98929.48;2180002;82;20955;-81
2021/09/25 12:20:30;;;;;;;10.90;7.75;;;;;;;21.22;58.79;98922.86;2180003;82;20978;-82
2021/09/25 12:23:29;;;;;;;8.78;7.75;;;;;;;21.26;59.14;98924.55;2179479;82;20970;-81
2021/09/25 12:26:29;;;;;;;10.15;7.75;;;;;;;21.18;57.28;98934.03;2179796;82;21498;-82
2021/09/25 12:29:29;;;;;;;9.78;8.25;;;;;;;21.05;57.91;98930.45;2181044;81;21031;-81
2021/09/25 12:32:30;;;;;;;11.08;7.97;;;;;;;21.03;58.08;98936.27;2181992;82;21010;-81
2021/09/25 12:35:30;;;;;;;9.70;7.65;;;;;;;21.03;58.74;98925.65;2182192;82;20967;-79
2021/09/25 12:38:31;;;;;;;7.75;7.05;;;;;;;21.00;58.99;98933.24;2182010;81;20979;-80
2021/09/25 12:41:31;;;;;;;9.75;7.37;;;;;;;20.90;58.19;98933.97;2182444;81;21338;-81
2021/09/25 12:44:34;;;;;;;13.30;8.13;;;;;;;20.81;58.30;98942.19;2183060;82;21394;-80
2021/09/25 12:47:35;;;;;;;7.87;6.97;;;;;;;20.86;58.89;98946.91;2183165;81;20975;-81
2021/09/25 12:50:38;;;;;;;10.88;7.67;;;;;;;20.90;58.57;98939.73;2183057;81;21006;-81
2021/09/25 12:53:39;;;;;;;7.42;6.72;;;;;;;20.94;58.98;98934.75;2183230;82;20971;-81
2021/09/25 12:56:39;;;;;;;9.43;6.15;;;;;;;21.03;58.13;98938.92;2183638;82;20995;-80
2021/09/25 12:59:40;;;;;;;8.95;6.33;;;;;;;20.93;57.39;98936.53;2182999;81;21019;-80
2021/09/25 13:02:40;;;;;;;12.03;6.80;;;;;;;20.87;57.12;98932.73;2183173;81;20932;-81
2021/09/25 13:05:41;;;;;;;8.75;7.17;;;;;;;20.79;57.21;98936.02;2183356;82;20964;-81
2021/09/25 13:08:41;;;;;;;7.03;6.33;;;;;;;20.84;57.51;98935.92;2183434;82;20956;-81
2021/09/25 13:11:42;;;;;;;8.98;7.03;;;;;;;20.85;57.46;98941.19;2183063;82;21359;-82
2021/09/25 13:14:42;;;;;;;7.72;6.90;;;;;;;20.72;57.58;98938.42;2183205;82;20995;-80
2021/09/25 13:17:43;;;;;;;11.48;6.80;;;;;;;20.68;57.99;98939.42;2183149;81;20987;-81
2021/09/25 13:20:43;;;;;;;9.23;8.30;;;;;;;20.64;58.03;98933.33;2182446;82;20976;-80
2021/09/25 13:23:44;;;;;;;9.38;7.37;;;;;;;20.68;57.88;98940.30;2182132;81;21023;-81
2021/09/25 13:26:44;;;;;;;13.65;7.92;;;;;;;20.65;58.10;98940.38;2182842;82;21010;-82
2021/09/25 13:29:45;;;;;;;9.60;8.00;;;;;;;20.66;58.04;98938.59;2186087;81;21455;-81
2021/09/25 13:32:45;;;;;;;8.13;7.25;;;;;;;20.70;58.36;98937.59;2187092;81;20987;-82
2021/09/25 13:35:48;;;;;;;8.08;7.03;;;;;;;20.75;58.06;98933.03;2187532;81;20943;-80
2021/09/25 13:38:48;;;;;;;8.15;7.40;;;;;;;20.74;57.84;98936.60;2187436;81;20954;-81
2021/09/25 13:41:49;;;;;;;10.90;7.55;;;;;;;20.65;57.38;98935.07;2187199;81;21011;-81
2021/09/25 13:44:49;;;;;;;9.38;6.90;;;;;;;20.64;57.93;98939.09;2187198;81;21050;-81
2021/09/25 13:47:52;;;;;;;7.78;7.08;;;;;;;20.61;58.06;98929.44;2187712;81;20975;-81
2021/09/25 13:50:52;;;;;;;9.40;7.12;;;;;;;20.54;57.74;98931.84;2187367;81;20939;-80
2021/09/25 13:53:53;;;;;;;9.65;6.67;;;;;;;20.40;58.29;98933.13;2187634;81;20994;-81
2021/09/25 13:56:53;;;;;;;10.25;6.90;;;;;;;20.32;58.55;98934.16;2187736;81;20922;-82
2021/09/25 13:59:54;;;;;;;8.93;7.47;;;;;;;20.26;59.00;98935.64;2187215;81;21042;-81
2021/09/25 14:02:56;;;;;;;8.63;7.78;;;;;;;20.24;59.08;98941.89;2187659;81;20956;-81
2021/09/25 14:05:57;;;;;;;8.13;7.33;;;;;;;20.15;59.13;98944.32;2187552;81;20959;-81
2021/09/25 14:08:57;;;;;;;9.83;7.97;;;;;;;20.07;59.69;98941.45;2187733;81;20980;-81
2021/09/25 14:11:58;;;;;;;8.00;7.00;;;;;;;19.96;59.38;98948.34;2187607;81;20999;-80